sensor_id;sensor_type;location;lat;lon;timestamp;P1;durP1;ratioP1;P2;durP2;ratioP2
19509;SDS011;9896;42.486;26.506;2023-03-01T00:01:52;2.80;;;1.83;;
19509;SDS011;9896;42.486;26.506;2023-03-01T00:04:18;3.53;;;2.10;;
19509;SDS011;9896;42.486;26.506;2023-03-01T00:06:43;2.57;;;1.57;;
19509;SDS011;9896;42.486;26.506;2023-03-01T00:09:13;2.80;;;1.93;;
19509;SDS011;9896;42.486;26.506;2023-03-01T00:11:39;1.80;;;1.70;;
19509;SDS011;9896;42.486;26.506;2023-03-01T00:14:05;2.97;;;1.80;;
19509;SDS011;9896;42.486;26.506;2023-03-01T00:16:32;3.03;;;1.50;;
19509;SDS011;9896;42.486;26.506;2023-03-01T00:19:00;1.60;;;1.47;;
19509;SDS011;9896;42.486;26.506;2023-03-01T00:21:26;1.17;;;1.00;;
19509;SDS011;9896;42.486;26.506;2023-03-01T00:23:52;1.93;;;1.50;;
19509;SDS011;9896;42.486;26.506;2023-03-01T00:26:19;1.90;;;1.57;;
19509;SDS011;9896;42.486;26.506;2023-03-01T00:28:46;2.00;;;1.80;;
19509;SDS011;9896;42.486;26.506;2023-03-01T00:31:13;1.30;;;1.20;;
19509;SDS011;9896;42.486;26.506;2023-03-01T00:33:41;1.57;;;1.47;;
19509;SDS011;9896;42.486;26.506;2023-03-01T00:36:07;1.70;;;1.60;;
19509;SDS011;9896;42.486;26.506;2023-03-01T00:38:37;1.83;;;1.63;;
19509;SDS011;9896;42.486;26.506;2023-03-01T00:41:08;2.43;;;1.67;;
19509;SDS011;9896;42.486;26.506;2023-03-01T00:43:39;3.23;;;1.70;;
19509;SDS011;9896;42.486;26.506;2023-03-01T00:46:06;1.40;;;1.30;;
19509;SDS011;9896;42.486;26.506;2023-03-01T00:48:34;2.43;;;1.57;;
19509;SDS011;9896;42.486;26.506;2023-03-01T00:51:07;2.93;;;1.90;;
19509;SDS011;9896;42.486;26.506;2023-03-01T00:53:34;3.87;;;2.50;;
19509;SDS011;9896;42.486;26.506;2023-03-01T00:56:03;2.50;;;1.97;;
19509;SDS011;9896;42.486;26.506;2023-03-01T00:58:31;2.00;;;1.80;;
19509;SDS011;9896;42.486;26.506;2023-03-01T01:00:57;2.33;;;1.73;;
19509;SDS011;9896;42.486;26.506;2023-03-01T01:03:23;2.37;;;1.83;;
19509;SDS011;9896;42.486;26.506;2023-03-01T01:05:50;2.50;;;1.50;;
19509;SDS011;9896;42.486;26.506;2023-03-01T01:08:17;1.63;;;1.50;;
19509;SDS011;9896;42.486;26.506;2023-03-01T01:10:43;2.13;;;1.57;;
19509;SDS011;9896;42.486;26.506;2023-03-01T01:13:10;1.70;;;1.30;;
19509;SDS011;9896;42.486;26.506;2023-03-01T01:15:35;3.23;;;1.43;;
19509;SDS011;9896;42.486;26.506;2023-03-01T01:18:01;1.73;;;1.40;;
19509;SDS011;9896;42.486;26.506;2023-03-01T01:20:27;2.00;;;1.63;;
19509;SDS011;9896;42.486;26.506;2023-03-01T01:22:53;1.63;;;1.40;;
19509;SDS011;9896;42.486;26.506;2023-03-01T01:25:18;2.50;;;1.63;;
19509;SDS011;9896;42.486;26.506;2023-03-01T01:27:44;2.30;;;1.83;;
19509;SDS011;9896;42.486;26.506;2023-03-01T01:30:10;2.20;;;1.70;;
19509;SDS011;9896;42.486;26.506;2023-03-01T01:32:36;2.50;;;1.93;;
19509;SDS011;9896;42.486;26.506;2023-03-01T01:35:02;1.77;;;1.40;;
19509;SDS011;9896;42.486;26.506;2023-03-01T01:37:27;1.47;;;1.20;;
19509;SDS011;9896;42.486;26.506;2023-03-01T01:39:59;2.33;;;1.70;;
19509;SDS011;9896;42.486;26.506;2023-03-01T01:42:26;1.70;;;1.47;;
19509;SDS011;9896;42.486;26.506;2023-03-01T01:47:54;2.13;;;1.70;;
19509;SDS011;9896;42.486;26.506;2023-03-01T01:50:22;1.50;;;1.30;;
19509;SDS011;9896;42.486;26.506;2023-03-01T01:52:48;2.07;;;1.50;;
19509;SDS011;9896;42.486;26.506;2023-03-01T01:55:21;1.63;;;1.47;;
19509;SDS011;9896;42.486;26.506;2023-03-01T01:57:56;1.63;;;1.53;;
19509;SDS011;9896;42.486;26.506;2023-03-01T02:00:28;2.20;;;1.47;;
19509;SDS011;9896;42.486;26.506;2023-03-01T02:02:56;2.67;;;1.50;;
19509;SDS011;9896;42.486;26.506;2023-03-01T02:05:43;1.73;;;1.40;;
19509;SDS011;9896;42.486;26.506;2023-03-01T02:08:13;4.90;;;1.40;;
19509;SDS011;9896;42.486;26.506;2023-03-01T02:10:41;2.20;;;1.57;;
19509;SDS011;9896;42.486;26.506;2023-03-01T02:13:07;4.23;;;1.53;;
19509;SDS011;9896;42.486;26.506;2023-03-01T02:15:34;2.40;;;1.70;;
19509;SDS011;9896;42.486;26.506;2023-03-01T02:18:02;2.40;;;1.50;;
19509;SDS011;9896;42.486;26.506;2023-03-01T02:20:40;2.50;;;1.93;;
19509;SDS011;9896;42.486;26.506;2023-03-01T02:23:15;1.80;;;1.70;;
19509;SDS011;9896;42.486;26.506;2023-03-01T02:31:01;2.47;;;1.80;;
19509;SDS011;9896;42.486;26.506;2023-03-01T02:33:46;2.77;;;1.77;;
19509;SDS011;9896;42.486;26.506;2023-03-01T02:36:34;2.13;;;1.67;;
19509;SDS011;9896;42.486;26.506;2023-03-01T02:39:03;1.87;;;1.60;;
19509;SDS011;9896;42.486;26.506;2023-03-01T02:41:32;2.37;;;1.60;;
19509;SDS011;9896;42.486;26.506;2023-03-01T02:44:01;2.33;;;1.80;;
19509;SDS011;9896;42.486;26.506;2023-03-01T02:46:27;2.00;;;1.83;;
19509;SDS011;9896;42.486;26.506;2023-03-01T02:48:54;3.63;;;2.00;;
19509;SDS011;9896;42.486;26.506;2023-03-01T02:51:42;2.27;;;2.00;;
19509;SDS011;9896;42.486;26.506;2023-03-01T02:54:24;2.43;;;2.03;;
19509;SDS011;9896;42.486;26.506;2023-03-01T02:57:05;2.37;;;1.67;;
19509;SDS011;9896;42.486;26.506;2023-03-01T02:59:32;2.30;;;2.10;;
19509;SDS011;9896;42.486;26.506;2023-03-01T03:02:05;2.40;;;2.20;;
19509;SDS011;9896;42.486;26.506;2023-03-01T03:04:31;3.73;;;2.60;;
19509;SDS011;9896;42.486;26.506;2023-03-01T03:06:57;4.17;;;2.83;;
19509;SDS011;9896;42.486;26.506;2023-03-01T03:09:22;3.67;;;2.83;;
19509;SDS011;9896;42.486;26.506;2023-03-01T03:11:48;4.73;;;3.20;;
19509;SDS011;9896;42.486;26.506;2023-03-01T03:14:14;4.30;;;3.30;;
19509;SDS011;9896;42.486;26.506;2023-03-01T03:16:42;4.43;;;2.80;;
19509;SDS011;9896;42.486;26.506;2023-03-01T03:19:10;4.87;;;3.33;;
19509;SDS011;9896;42.486;26.506;2023-03-01T03:21:36;4.80;;;3.10;;
19509;SDS011;9896;42.486;26.506;2023-03-01T03:24:02;6.80;;;3.97;;
19509;SDS011;9896;42.486;26.506;2023-03-01T03:26:28;8.90;;;4.97;;
19509;SDS011;9896;42.486;26.506;2023-03-01T03:28:54;6.37;;;3.80;;
19509;SDS011;9896;42.486;26.506;2023-03-01T03:31:19;5.37;;;3.83;;
19509;SDS011;9896;42.486;26.506;2023-03-01T03:33:46;6.77;;;4.00;;
19509;SDS011;9896;42.486;26.506;2023-03-01T03:36:18;6.50;;;3.90;;
19509;SDS011;9896;42.486;26.506;2023-03-01T03:38:46;4.03;;;2.70;;
19509;SDS011;9896;42.486;26.506;2023-03-01T03:41:12;4.53;;;2.67;;
19509;SDS011;9896;42.486;26.506;2023-03-01T03:46:22;9.80;;;4.17;;
19509;SDS011;9896;42.486;26.506;2023-03-01T03:48:48;2.83;;;2.30;;
19509;SDS011;9896;42.486;26.506;2023-03-01T03:51:14;6.37;;;4.43;;
19509;SDS011;9896;42.486;26.506;2023-03-01T03:53:42;4.80;;;3.47;;
19509;SDS011;9896;42.486;26.506;2023-03-01T03:56:08;3.23;;;2.57;;
19509;SDS011;9896;42.486;26.506;2023-03-01T03:58:34;4.67;;;3.40;;
19509;SDS011;9896;42.486;26.506;2023-03-01T04:00:59;4.90;;;3.20;;
19509;SDS011;9896;42.486;26.506;2023-03-01T04:03:26;6.13;;;3.23;;
19509;SDS011;9896;42.486;26.506;2023-03-01T04:05:52;3.63;;;2.53;;
19509;SDS011;9896;42.486;26.506;2023-03-01T04:08:21;5.43;;;2.50;;
19509;SDS011;9896;42.486;26.506;2023-03-01T04:10:49;6.33;;;3.80;;
19509;SDS011;9896;42.486;26.506;2023-03-01T04:13:17;5.73;;;3.40;;
19509;SDS011;9896;42.486;26.506;2023-03-01T04:15:45;3.87;;;2.50;;
19509;SDS011;9896;42.486;26.506;2023-03-01T04:18:13;7.60;;;3.70;;
19509;SDS011;9896;42.486;26.506;2023-03-01T04:20:40;5.27;;;3.60;;
19509;SDS011;9896;42.486;26.506;2023-03-01T04:23:08;6.47;;;4.20;;
19509;SDS011;9896;42.486;26.506;2023-03-01T04:28:31;6.43;;;4.13;;
19509;SDS011;9896;42.486;26.506;2023-03-01T04:31:23;6.47;;;3.93;;
19509;SDS011;9896;42.486;26.506;2023-03-01T04:33:49;5.97;;;3.53;;
19509;SDS011;9896;42.486;26.506;2023-03-01T04:36:18;3.73;;;2.90;;
19509;SDS011;9896;42.486;26.506;2023-03-01T04:38:44;8.43;;;5.10;;
19509;SDS011;9896;42.486;26.506;2023-03-01T04:41:13;7.47;;;4.93;;
19509;SDS011;9896;42.486;26.506;2023-03-01T04:43:40;6.30;;;3.70;;
19509;SDS011;9896;42.486;26.506;2023-03-01T04:46:07;5.30;;;3.57;;
19509;SDS011;9896;42.486;26.506;2023-03-01T04:48:36;3.20;;;2.57;;
19509;SDS011;9896;42.486;26.506;2023-03-01T04:51:02;6.63;;;3.80;;
19509;SDS011;9896;42.486;26.506;2023-03-01T04:53:28;3.20;;;2.37;;
19509;SDS011;9896;42.486;26.506;2023-03-01T04:55:55;5.93;;;4.07;;
19509;SDS011;9896;42.486;26.506;2023-03-01T04:58:25;6.10;;;4.57;;
19509;SDS011;9896;42.486;26.506;2023-03-01T05:00:52;7.57;;;4.97;;
19509;SDS011;9896;42.486;26.506;2023-03-01T05:03:18;9.37;;;5.07;;
19509;SDS011;9896;42.486;26.506;2023-03-01T05:05:45;8.13;;;4.00;;
19509;SDS011;9896;42.486;26.506;2023-03-01T05:08:12;7.40;;;4.13;;
19509;SDS011;9896;42.486;26.506;2023-03-01T05:10:49;9.03;;;4.90;;
19509;SDS011;9896;42.486;26.506;2023-03-01T05:13:19;8.93;;;4.67;;
19509;SDS011;9896;42.486;26.506;2023-03-01T05:15:53;9.20;;;4.93;;
19509;SDS011;9896;42.486;26.506;2023-03-01T05:18:24;7.80;;;5.03;;
19509;SDS011;9896;42.486;26.506;2023-03-01T05:21:00;8.70;;;5.60;;
19509;SDS011;9896;42.486;26.506;2023-03-01T05:23:29;8.23;;;5.50;;
19509;SDS011;9896;42.486;26.506;2023-03-01T05:25:57;10.27;;;5.20;;
19509;SDS011;9896;42.486;26.506;2023-03-01T05:28:24;9.20;;;5.90;;
19509;SDS011;9896;42.486;26.506;2023-03-01T05:30:51;9.03;;;5.73;;
19509;SDS011;9896;42.486;26.506;2023-03-01T05:33:17;9.13;;;4.83;;
19509;SDS011;9896;42.486;26.506;2023-03-01T05:35:44;10.53;;;5.50;;
19509;SDS011;9896;42.486;26.506;2023-03-01T05:38:13;9.67;;;6.00;;
19509;SDS011;9896;42.486;26.506;2023-03-01T05:40:43;14.00;;;5.87;;
19509;SDS011;9896;42.486;26.506;2023-03-01T05:43:10;11.77;;;6.87;;
19509;SDS011;9896;42.486;26.506;2023-03-01T05:45:38;11.23;;;6.93;;
19509;SDS011;9896;42.486;26.506;2023-03-01T05:48:05;9.70;;;5.87;;
19509;SDS011;9896;42.486;26.506;2023-03-01T05:50:32;6.77;;;4.77;;
19509;SDS011;9896;42.486;26.506;2023-03-01T05:53:01;10.50;;;5.60;;
19509;SDS011;9896;42.486;26.506;2023-03-01T05:55:27;6.37;;;4.07;;
19509;SDS011;9896;42.486;26.506;2023-03-01T05:57:57;7.47;;;4.23;;
19509;SDS011;9896;42.486;26.506;2023-03-01T06:00:24;7.87;;;4.73;;
19509;SDS011;9896;42.486;26.506;2023-03-01T06:02:50;5.17;;;4.37;;
19509;SDS011;9896;42.486;26.506;2023-03-01T06:05:17;5.77;;;3.53;;
19509;SDS011;9896;42.486;26.506;2023-03-01T06:07:42;7.70;;;3.40;;
19509;SDS011;9896;42.486;26.506;2023-03-01T06:10:09;10.47;;;6.27;;
19509;SDS011;9896;42.486;26.506;2023-03-01T06:12:36;6.80;;;3.40;;
19509;SDS011;9896;42.486;26.506;2023-03-01T06:15:03;7.50;;;4.43;;
19509;SDS011;9896;42.486;26.506;2023-03-01T06:17:31;8.87;;;5.43;;
19509;SDS011;9896;42.486;26.506;2023-03-01T06:20:03;10.33;;;5.73;;
19509;SDS011;9896;42.486;26.506;2023-03-01T06:22:31;6.93;;;3.90;;
19509;SDS011;9896;42.486;26.506;2023-03-01T06:24:56;9.43;;;3.57;;
19509;SDS011;9896;42.486;26.506;2023-03-01T06:27:22;7.80;;;4.60;;
19509;SDS011;9896;42.486;26.506;2023-03-01T06:29:47;13.40;;;5.93;;
19509;SDS011;9896;42.486;26.506;2023-03-01T06:32:13;13.80;;;6.07;;
19509;SDS011;9896;42.486;26.506;2023-03-01T06:34:39;11.20;;;5.87;;
19509;SDS011;9896;42.486;26.506;2023-03-01T06:37:05;11.93;;;5.27;;
19509;SDS011;9896;42.486;26.506;2023-03-01T06:39:32;7.40;;;4.50;;
19509;SDS011;9896;42.486;26.506;2023-03-01T06:41:57;9.90;;;5.60;;
19509;SDS011;9896;42.486;26.506;2023-03-01T06:44:23;12.17;;;4.97;;
19509;SDS011;9896;42.486;26.506;2023-03-01T06:46:49;8.03;;;5.00;;
19509;SDS011;9896;42.486;26.506;2023-03-01T06:49:14;8.60;;;3.97;;
19509;SDS011;9896;42.486;26.506;2023-03-01T06:51:41;11.23;;;4.70;;
19509;SDS011;9896;42.486;26.506;2023-03-01T06:54:07;9.37;;;4.83;;
19509;SDS011;9896;42.486;26.506;2023-03-01T06:56:33;6.83;;;4.03;;
19509;SDS011;9896;42.486;26.506;2023-03-01T06:58:58;8.20;;;4.50;;
19509;SDS011;9896;42.486;26.506;2023-03-01T07:01:24;10.77;;;5.37;;
19509;SDS011;9896;42.486;26.506;2023-03-01T07:03:50;9.70;;;4.80;;
19509;SDS011;9896;42.486;26.506;2023-03-01T07:06:15;10.83;;;4.87;;
19509;SDS011;9896;42.486;26.506;2023-03-01T07:08:42;8.27;;;4.90;;
19509;SDS011;9896;42.486;26.506;2023-03-01T07:11:08;8.60;;;4.57;;
19509;SDS011;9896;42.486;26.506;2023-03-01T07:13:34;4.33;;;3.10;;
19509;SDS011;9896;42.486;26.506;2023-03-01T07:15:59;9.37;;;5.00;;
19509;SDS011;9896;42.486;26.506;2023-03-01T07:18:25;13.17;;;5.03;;
19509;SDS011;9896;42.486;26.506;2023-03-01T07:20:51;9.63;;;4.60;;
19509;SDS011;9896;42.486;26.506;2023-03-01T07:23:16;9.20;;;4.60;;
19509;SDS011;9896;42.486;26.506;2023-03-01T07:25:42;9.70;;;5.30;;
19509;SDS011;9896;42.486;26.506;2023-03-01T07:28:08;10.13;;;5.70;;
19509;SDS011;9896;42.486;26.506;2023-03-01T07:30:33;8.60;;;5.23;;
19509;SDS011;9896;42.486;26.506;2023-03-01T07:32:59;14.37;;;6.03;;
19509;SDS011;9896;42.486;26.506;2023-03-01T07:35:25;11.00;;;6.43;;
19509;SDS011;9896;42.486;26.506;2023-03-01T07:37:52;14.33;;;6.47;;
19509;SDS011;9896;42.486;26.506;2023-03-01T07:40:17;16.97;;;8.27;;
19509;SDS011;9896;42.486;26.506;2023-03-01T07:42:43;19.30;;;8.80;;
19509;SDS011;9896;42.486;26.506;2023-03-01T07:45:09;12.77;;;5.93;;
19509;SDS011;9896;42.486;26.506;2023-03-01T07:47:35;12.70;;;7.33;;
19509;SDS011;9896;42.486;26.506;2023-03-01T07:50:01;14.13;;;7.57;;
19509;SDS011;9896;42.486;26.506;2023-03-01T07:52:27;12.90;;;5.90;;
19509;SDS011;9896;42.486;26.506;2023-03-01T07:54:53;18.73;;;9.27;;
19509;SDS011;9896;42.486;26.506;2023-03-01T07:57:19;9.93;;;5.70;;
19509;SDS011;9896;42.486;26.506;2023-03-01T07:59:45;9.00;;;5.70;;
19509;SDS011;9896;42.486;26.506;2023-03-01T08:02:10;13.73;;;6.73;;
19509;SDS011;9896;42.486;26.506;2023-03-01T08:04:36;13.00;;;6.77;;
19509;SDS011;9896;42.486;26.506;2023-03-01T08:07:04;13.27;;;7.07;;
19509;SDS011;9896;42.486;26.506;2023-03-01T08:09:30;11.30;;;5.87;;
19509;SDS011;9896;42.486;26.506;2023-03-01T08:11:57;13.63;;;7.60;;
19509;SDS011;9896;42.486;26.506;2023-03-01T08:14:24;12.00;;;7.57;;
19509;SDS011;9896;42.486;26.506;2023-03-01T08:16:50;15.47;;;7.40;;
19509;SDS011;9896;42.486;26.506;2023-03-01T08:19:17;19.90;;;9.07;;
19509;SDS011;9896;42.486;26.506;2023-03-01T08:21:42;12.20;;;6.30;;
19509;SDS011;9896;42.486;26.506;2023-03-01T08:24:08;14.33;;;7.10;;
19509;SDS011;9896;42.486;26.506;2023-03-01T08:26:35;13.33;;;7.73;;
19509;SDS011;9896;42.486;26.506;2023-03-01T08:29:01;20.63;;;7.60;;
19509;SDS011;9896;42.486;26.506;2023-03-01T08:31:32;14.07;;;6.80;;
19509;SDS011;9896;42.486;26.506;2023-03-01T08:34:07;14.97;;;7.03;;
19509;SDS011;9896;42.486;26.506;2023-03-01T08:36:36;15.33;;;7.30;;
19509;SDS011;9896;42.486;26.506;2023-03-01T08:39:04;13.93;;;6.57;;
19509;SDS011;9896;42.486;26.506;2023-03-01T08:41:30;10.67;;;6.20;;
19509;SDS011;9896;42.486;26.506;2023-03-01T08:43:56;13.43;;;6.73;;
19509;SDS011;9896;42.486;26.506;2023-03-01T08:46:27;12.77;;;6.30;;
19509;SDS011;9896;42.486;26.506;2023-03-01T08:49:04;13.70;;;6.80;;
19509;SDS011;9896;42.486;26.506;2023-03-01T08:51:30;14.97;;;7.23;;
19509;SDS011;9896;42.486;26.506;2023-03-01T08:54:02;14.53;;;7.63;;
19509;SDS011;9896;42.486;26.506;2023-03-01T08:56:28;17.17;;;8.60;;
19509;SDS011;9896;42.486;26.506;2023-03-01T08:58:54;17.33;;;8.93;;
19509;SDS011;9896;42.486;26.506;2023-03-01T09:01:19;14.83;;;8.27;;
19509;SDS011;9896;42.486;26.506;2023-03-01T09:03:45;10.40;;;6.07;;
19509;SDS011;9896;42.486;26.506;2023-03-01T09:06:11;11.37;;;6.57;;
19509;SDS011;9896;42.486;26.506;2023-03-01T09:08:40;15.27;;;7.93;;
19509;SDS011;9896;42.486;26.506;2023-03-01T09:11:07;18.07;;;9.07;;
19509;SDS011;9896;42.486;26.506;2023-03-01T09:13:34;13.60;;;7.73;;
19509;SDS011;9896;42.486;26.506;2023-03-01T09:16:01;19.73;;;8.03;;
19509;SDS011;9896;42.486;26.506;2023-03-01T09:18:28;17.77;;;8.77;;
19509;SDS011;9896;42.486;26.506;2023-03-01T09:21:00;13.10;;;6.87;;
19509;SDS011;9896;42.486;26.506;2023-03-01T09:23:37;12.83;;;7.47;;
19509;SDS011;9896;42.486;26.506;2023-03-01T09:26:05;13.00;;;7.50;;
19509;SDS011;9896;42.486;26.506;2023-03-01T09:28:34;12.90;;;7.20;;
19509;SDS011;9896;42.486;26.506;2023-03-01T09:31:03;17.57;;;8.27;;
19509;SDS011;9896;42.486;26.506;2023-03-01T09:33:30;18.70;;;8.63;;
19509;SDS011;9896;42.486;26.506;2023-03-01T09:36:03;15.57;;;8.57;;
19509;SDS011;9896;42.486;26.506;2023-03-01T09:38:32;18.57;;;10.37;;
19509;SDS011;9896;42.486;26.506;2023-03-01T09:41:00;21.00;;;10.40;;
19509;SDS011;9896;42.486;26.506;2023-03-01T09:43:30;14.70;;;9.40;;
19509;SDS011;9896;42.486;26.506;2023-03-01T09:46:22;12.43;;;7.43;;
19509;SDS011;9896;42.486;26.506;2023-03-01T09:49:00;22.27;;;8.97;;
19509;SDS011;9896;42.486;26.506;2023-03-01T09:51:31;33.17;;;10.00;;
19509;SDS011;9896;42.486;26.506;2023-03-01T09:54:00;21.20;;;9.50;;
19509;SDS011;9896;42.486;26.506;2023-03-01T10:07:04;22.00;;;8.43;;
19509;SDS011;9896;42.486;26.506;2023-03-01T10:09:43;17.70;;;8.97;;
19509;SDS011;9896;42.486;26.506;2023-03-01T10:12:19;17.07;;;8.23;;
19509;SDS011;9896;42.486;26.506;2023-03-01T10:17:39;15.80;;;8.57;;
19509;SDS011;9896;42.486;26.506;2023-03-01T10:20:19;12.87;;;6.10;;
19509;SDS011;9896;42.486;26.506;2023-03-01T10:22:49;11.10;;;6.37;;
19509;SDS011;9896;42.486;26.506;2023-03-01T10:25:25;14.13;;;6.53;;
19509;SDS011;9896;42.486;26.506;2023-03-01T10:28:06;18.97;;;9.77;;
19509;SDS011;9896;42.486;26.506;2023-03-01T10:30:42;23.87;;;11.30;;
19509;SDS011;9896;42.486;26.506;2023-03-01T10:33:20;24.73;;;10.13;;
19509;SDS011;9896;42.486;26.506;2023-03-01T10:35:51;19.97;;;9.27;;
19509;SDS011;9896;42.486;26.506;2023-03-01T10:38:17;15.70;;;7.13;;
19509;SDS011;9896;42.486;26.506;2023-03-01T10:40:55;18.10;;;7.47;;
19509;SDS011;9896;42.486;26.506;2023-03-01T10:43:24;20.50;;;9.30;;
19509;SDS011;9896;42.486;26.506;2023-03-01T10:45:51;349.27;;;32.50;;
19509;SDS011;9896;42.486;26.506;2023-03-01T10:48:21;15.90;;;8.53;;
19509;SDS011;9896;42.486;26.506;2023-03-01T10:53:27;22.87;;;10.27;;
19509;SDS011;9896;42.486;26.506;2023-03-01T10:56:22;18.27;;;9.00;;
19509;SDS011;9896;42.486;26.506;2023-03-01T10:59:01;20.73;;;9.10;;
19509;SDS011;9896;42.486;26.506;2023-03-01T11:01:30;19.03;;;9.23;;
19509;SDS011;9896;42.486;26.506;2023-03-01T11:06:33;16.47;;;8.47;;
19509;SDS011;9896;42.486;26.506;2023-03-01T11:09:13;27.20;;;10.00;;
19509;SDS011;9896;42.486;26.506;2023-03-01T11:11:56;18.50;;;9.90;;
19509;SDS011;9896;42.486;26.506;2023-03-01T11:14:26;18.27;;;8.87;;
19509;SDS011;9896;42.486;26.506;2023-03-01T11:17:00;23.13;;;7.53;;
19509;SDS011;9896;42.486;26.506;2023-03-01T11:19:29;14.37;;;6.67;;
19509;SDS011;9896;42.486;26.506;2023-03-01T11:21:57;16.60;;;8.40;;
19509;SDS011;9896;42.486;26.506;2023-03-01T11:24:31;20.00;;;10.47;;
19509;SDS011;9896;42.486;26.506;2023-03-01T11:27:16;18.13;;;9.20;;
19509;SDS011;9896;42.486;26.506;2023-03-01T11:30:00;18.80;;;10.83;;
19509;SDS011;9896;42.486;26.506;2023-03-01T11:32:27;23.40;;;9.87;;
19509;SDS011;9896;42.486;26.506;2023-03-01T11:35:17;18.87;;;9.83;;
19509;SDS011;9896;42.486;26.506;2023-03-01T11:38:08;16.60;;;8.03;;
19509;SDS011;9896;42.486;26.506;2023-03-01T11:40:49;20.93;;;8.87;;
19509;SDS011;9896;42.486;26.506;2023-03-01T11:49:02;20.43;;;9.43;;
19509;SDS011;9896;42.486;26.506;2023-03-01T11:57:16;16.07;;;8.27;;
19509;SDS011;9896;42.486;26.506;2023-03-01T12:05:24;21.60;;;10.53;;
19509;SDS011;9896;42.486;26.506;2023-03-01T12:13:48;36.43;;;19.47;;
19509;SDS011;9896;42.486;26.506;2023-03-01T12:16:32;34.37;;;19.83;;
19509;SDS011;9896;42.486;26.506;2023-03-01T12:27:04;21.30;;;9.83;;
19509;SDS011;9896;42.486;26.506;2023-03-01T12:32:38;19.87;;;10.43;;
19509;SDS011;9896;42.486;26.506;2023-03-01T12:35:16;14.07;;;7.80;;
19509;SDS011;9896;42.486;26.506;2023-03-01T12:37:56;20.13;;;9.73;;
19509;SDS011;9896;42.486;26.506;2023-03-01T12:40:31;18.23;;;10.60;;
19509;SDS011;9896;42.486;26.506;2023-03-01T12:43:21;18.27;;;9.30;;
19509;SDS011;9896;42.486;26.506;2023-03-01T12:48:39;22.00;;;11.20;;
19509;SDS011;9896;42.486;26.506;2023-03-01T12:51:14;24.40;;;11.63;;
19509;SDS011;9896;42.486;26.506;2023-03-01T12:53:46;25.63;;;12.60;;
19509;SDS011;9896;42.486;26.506;2023-03-01T12:56:15;19.57;;;10.87;;
19509;SDS011;9896;42.486;26.506;2023-03-01T13:04:21;20.10;;;9.50;;
19509;SDS011;9896;42.486;26.506;2023-03-01T13:17:47;26.17;;;12.87;;
19509;SDS011;9896;42.486;26.506;2023-03-01T13:20:17;26.57;;;12.77;;
19509;SDS011;9896;42.486;26.506;2023-03-01T13:22:46;24.70;;;11.23;;
19509;SDS011;9896;42.486;26.506;2023-03-01T13:25:16;23.70;;;12.00;;
19509;SDS011;9896;42.486;26.506;2023-03-01T13:27:44;24.33;;;13.10;;
19509;SDS011;9896;42.486;26.506;2023-03-01T13:30:56;28.03;;;13.13;;
19509;SDS011;9896;42.486;26.506;2023-03-01T13:36:07;27.50;;;14.23;;
19509;SDS011;9896;42.486;26.506;2023-03-01T13:38:37;27.53;;;14.73;;
19509;SDS011;9896;42.486;26.506;2023-03-01T13:44:41;22.63;;;12.27;;
19509;SDS011;9896;42.486;26.506;2023-03-01T13:52:32;23.70;;;13.40;;
19509;SDS011;9896;42.486;26.506;2023-03-01T13:55:14;24.17;;;12.37;;
19509;SDS011;9896;42.486;26.506;2023-03-01T13:57:43;26.63;;;13.10;;
19509;SDS011;9896;42.486;26.506;2023-03-01T14:06:06;27.17;;;13.37;;
19509;SDS011;9896;42.486;26.506;2023-03-01T14:08:37;25.77;;;13.97;;
19509;SDS011;9896;42.486;26.506;2023-03-01T14:16:42;26.30;;;14.93;;
19509;SDS011;9896;42.486;26.506;2023-03-01T14:19:24;30.27;;;15.77;;
19509;SDS011;9896;42.486;26.506;2023-03-01T14:22:25;31.50;;;14.83;;
19509;SDS011;9896;42.486;26.506;2023-03-01T14:24:51;32.03;;;16.30;;
19509;SDS011;9896;42.486;26.506;2023-03-01T14:27:21;36.43;;;16.33;;
19509;SDS011;9896;42.486;26.506;2023-03-01T14:29:56;38.67;;;19.13;;
19509;SDS011;9896;42.486;26.506;2023-03-01T14:32:25;35.47;;;18.93;;
19509;SDS011;9896;42.486;26.506;2023-03-01T14:34:56;28.23;;;13.87;;
19509;SDS011;9896;42.486;26.506;2023-03-01T14:37:31;22.03;;;11.87;;
19509;SDS011;9896;42.486;26.506;2023-03-01T14:39:59;28.43;;;12.07;;
19509;SDS011;9896;42.486;26.506;2023-03-01T14:42:28;25.10;;;12.53;;
19509;SDS011;9896;42.486;26.506;2023-03-01T14:44:59;26.77;;;11.37;;
19509;SDS011;9896;42.486;26.506;2023-03-01T14:47:30;29.07;;;12.57;;
19509;SDS011;9896;42.486;26.506;2023-03-01T14:49:58;21.27;;;10.23;;
19509;SDS011;9896;42.486;26.506;2023-03-01T14:52:31;22.33;;;10.83;;
19509;SDS011;9896;42.486;26.506;2023-03-01T14:55:04;20.57;;;10.20;;
19509;SDS011;9896;42.486;26.506;2023-03-01T14:57:38;24.43;;;12.27;;
19509;SDS011;9896;42.486;26.506;2023-03-01T15:00:10;25.00;;;12.43;;
19509;SDS011;9896;42.486;26.506;2023-03-01T15:02:44;32.87;;;14.40;;
19509;SDS011;9896;42.486;26.506;2023-03-01T15:05:13;28.27;;;11.63;;
19509;SDS011;9896;42.486;26.506;2023-03-01T15:07:40;29.20;;;13.23;;
19509;SDS011;9896;42.486;26.506;2023-03-01T15:10:13;27.57;;;13.17;;
19509;SDS011;9896;42.486;26.506;2023-03-01T15:12:44;25.50;;;12.73;;
19509;SDS011;9896;42.486;26.506;2023-03-01T15:17:59;29.67;;;13.70;;
19509;SDS011;9896;42.486;26.506;2023-03-01T15:20:28;26.60;;;13.00;;
19509;SDS011;9896;42.486;26.506;2023-03-01T15:22:56;26.80;;;13.30;;
19509;SDS011;9896;42.486;26.506;2023-03-01T15:25:24;27.87;;;13.47;;
19509;SDS011;9896;42.486;26.506;2023-03-01T15:27:52;27.53;;;11.93;;
19509;SDS011;9896;42.486;26.506;2023-03-01T15:32:48;36.03;;;14.23;;
19509;SDS011;9896;42.486;26.506;2023-03-01T15:35:45;35.63;;;16.60;;
19509;SDS011;9896;42.486;26.506;2023-03-01T15:41:23;31.67;;;14.60;;
19509;SDS011;9896;42.486;26.506;2023-03-01T15:43:57;32.73;;;16.03;;
19509;SDS011;9896;42.486;26.506;2023-03-01T15:46:25;35.07;;;15.30;;
19509;SDS011;9896;42.486;26.506;2023-03-01T15:49:00;30.93;;;15.43;;
19509;SDS011;9896;42.486;26.506;2023-03-01T15:51:32;34.80;;;14.97;;
19509;SDS011;9896;42.486;26.506;2023-03-01T15:54:00;35.03;;;15.63;;
19509;SDS011;9896;42.486;26.506;2023-03-01T15:56:28;32.03;;;14.70;;
19509;SDS011;9896;42.486;26.506;2023-03-01T15:58:57;39.53;;;17.13;;
19509;SDS011;9896;42.486;26.506;2023-03-01T16:01:24;30.73;;;15.53;;
19509;SDS011;9896;42.486;26.506;2023-03-01T16:03:50;25.17;;;12.97;;
19509;SDS011;9896;42.486;26.506;2023-03-01T16:06:16;31.07;;;14.57;;
19509;SDS011;9896;42.486;26.506;2023-03-01T16:08:42;36.97;;;15.00;;
19509;SDS011;9896;42.486;26.506;2023-03-01T16:11:14;31.43;;;14.17;;
19509;SDS011;9896;42.486;26.506;2023-03-01T16:13:42;30.93;;;14.87;;
19509;SDS011;9896;42.486;26.506;2023-03-01T16:16:09;31.13;;;14.03;;
19509;SDS011;9896;42.486;26.506;2023-03-01T16:18:40;29.00;;;14.90;;
19509;SDS011;9896;42.486;26.506;2023-03-01T16:21:06;34.03;;;17.00;;
19509;SDS011;9896;42.486;26.506;2023-03-01T16:23:32;34.90;;;16.33;;
19509;SDS011;9896;42.486;26.506;2023-03-01T16:26:00;31.20;;;15.00;;
19509;SDS011;9896;42.486;26.506;2023-03-01T16:28:26;32.13;;;15.00;;
19509;SDS011;9896;42.486;26.506;2023-03-01T16:30:52;36.50;;;16.27;;
19509;SDS011;9896;42.486;26.506;2023-03-01T16:33:17;29.77;;;14.67;;
19509;SDS011;9896;42.486;26.506;2023-03-01T16:35:43;36.03;;;15.13;;
19509;SDS011;9896;42.486;26.506;2023-03-01T16:38:09;31.87;;;15.20;;
19509;SDS011;9896;42.486;26.506;2023-03-01T16:40:36;36.00;;;15.97;;
19509;SDS011;9896;42.486;26.506;2023-03-01T16:43:02;36.57;;;16.03;;
19509;SDS011;9896;42.486;26.506;2023-03-01T16:45:29;36.27;;;16.87;;
19509;SDS011;9896;42.486;26.506;2023-03-01T16:47:59;39.83;;;17.03;;